createdAt,value
2018-03-14T00:01:03.483Z,0
2018-03-14T00:02:12.168Z,0
2018-03-14T00:03:21.143Z,0
2018-03-14T00:04:30.114Z,0
2018-03-14T00:05:39.102Z,0
2018-03-14T00:06:48.083Z,0
2018-03-14T00:07:57.046Z,0
2018-03-14T00:09:06.025Z,0
2018-03-14T00:10:15.292Z,0
2018-03-14T00:11:24.559Z,0
2018-03-14T00:12:34.387Z,0
2018-03-14T00:13:43.921Z,0
2018-03-14T00:14:52.903Z,0
2018-03-14T00:16:01.888Z,0
2018-03-14T00:17:10.860Z,0
2018-03-14T00:18:20.428Z,0
2018-03-14T00:19:29.458Z,0
2018-03-14T00:20:38.715Z,0
2018-03-14T00:21:47.403Z,0
2018-03-14T00:22:56.391Z,0
2018-03-14T00:24:05.379Z,0
2018-03-14T00:25:14.347Z,0
2018-03-14T00:26:23.037Z,0
2018-03-14T00:27:32.018Z,0
2018-03-14T00:28:40.992Z,0
2018-03-14T00:29:49.961Z,0
2018-03-14T00:30:58.926Z,0
2018-03-14T00:32:08.477Z,0
2018-03-14T00:33:17.445Z,0
2018-03-14T00:34:26.135Z,0
2018-03-14T00:35:35.099Z,0
2018-03-14T00:36:44.642Z,0
2018-03-14T00:37:53.337Z,0
2018-03-14T00:39:02.310Z,0
2018-03-14T00:40:11.596Z,0
2018-03-14T00:41:21.127Z,0
2018-03-14T00:42:30.117Z,0
2018-03-14T00:43:39.660Z,0
2018-03-14T00:44:48.633Z,0
2018-03-14T00:45:57.601Z,0
2018-03-14T00:47:06.871Z,0
2018-03-14T00:48:16.154Z,0
2018-03-14T00:49:25.409Z,0
2018-03-14T00:50:34.692Z,0
2018-03-14T00:51:43.385Z,0
2018-03-14T00:52:52.652Z,0
2018-03-14T00:54:01.667Z,0
2018-03-14T00:55:10.361Z,0
2018-03-14T00:56:19.622Z,0
2018-03-14T00:57:29.180Z,0
2018-03-14T00:58:38.723Z,0
2018-03-14T00:59:47.414Z,0
2018-03-14T01:00:56.408Z,0
2018-03-14T01:02:05.659Z,0
2018-03-14T01:03:15.213Z,0
2018-03-14T01:04:24.183Z,0
2018-03-14T01:05:34.292Z,0
2018-03-14T01:06:43.604Z,0
2018-03-14T01:07:52.872Z,0
2018-03-14T01:09:02.171Z,0
2018-03-14T01:10:11.452Z,0
2018-03-14T01:11:21.297Z,0
2018-03-14T01:12:30.879Z,0
2018-03-14T01:13:40.457Z,0
2018-03-14T01:14:50.618Z,0
2018-03-14T01:15:59.596Z,0
2018-03-14T01:17:10.645Z,0
2018-03-14T01:18:20.342Z,0
2018-03-14T01:19:29.317Z,0
2018-03-14T01:20:39.270Z,0
2018-03-14T01:21:48.398Z,0
2018-03-14T01:22:59.101Z,0
2018-03-14T01:24:09.351Z,0
2018-03-14T01:25:19.323Z,0
2018-03-14T01:26:29.324Z,0
2018-03-14T01:27:38.304Z,0
2018-03-14T01:28:47.568Z,0
2018-03-14T01:29:57.299Z,0
2018-03-14T01:31:06.270Z,0
2018-03-14T01:32:15.248Z,0
2018-03-14T01:33:24.877Z,0
2018-03-14T01:34:34.136Z,0
2018-03-14T01:35:44.041Z,0
2018-03-14T01:36:52.732Z,0
2018-03-14T01:38:01.736Z,0
2018-03-14T01:39:10.703Z,0
2018-03-14T01:40:20.527Z,0
2018-03-14T01:41:29.818Z,0
2018-03-14T01:42:38.800Z,0
2018-03-14T01:43:47.789Z,0
2018-03-14T01:44:56.756Z,0
2018-03-14T01:46:06.009Z,0
2018-03-14T01:47:14.697Z,0
2018-03-14T01:48:23.672Z,0
2018-03-14T01:49:32.659Z,0
2018-03-14T01:50:41.347Z,0
2018-03-14T01:51:50.318Z,0
2018-03-14T01:52:59.009Z,0
2018-03-14T01:54:07.701Z,0
2018-03-14T01:55:17.228Z,0
2018-03-14T01:56:27.356Z,0
2018-03-14T01:57:36.334Z,0
2018-03-14T01:58:45.594Z,0
2018-03-14T01:59:55.119Z,0
2018-03-14T02:01:04.093Z,0
2018-03-14T02:02:13.088Z,0
2018-03-14T02:03:22.056Z,0
2018-03-14T02:04:31.030Z,0
2018-03-14T02:05:40.286Z,0
2018-03-14T02:06:49.260Z,0
2018-03-14T02:07:58.528Z,0
2018-03-14T02:09:08.357Z,0
2018-03-14T02:10:17.618Z,0
2018-03-14T02:11:26.307Z,0
2018-03-14T02:12:35.286Z,0
2018-03-14T02:13:44.822Z,0
2018-03-14T02:14:54.416Z,0
2018-03-14T02:16:03.410Z,0
2018-03-14T02:17:12.674Z,0
2018-03-14T02:18:21.942Z,0
2018-03-14T02:19:31.505Z,0
2018-03-14T02:20:41.041Z,0
2018-03-14T02:21:50.325Z,0
2018-03-14T02:22:59.596Z,0
2018-03-14T02:24:08.583Z,0
2018-03-14T02:25:17.545Z,0
2018-03-14T02:26:26.514Z,0
2018-03-14T02:27:36.364Z,0
2018-03-14T02:28:45.618Z,0
2018-03-14T02:29:54.601Z,0
2018-03-14T02:31:03.574Z,0
2018-03-14T02:32:12.849Z,0
2018-03-14T02:33:22.099Z,0
2018-03-14T02:34:31.384Z,0
2018-03-14T02:35:40.919Z,0
2018-03-14T02:36:49.901Z,0
2018-03-14T02:37:58.596Z,0
2018-03-14T02:39:07.871Z,0
2018-03-14T02:40:17.396Z,0
2018-03-14T02:41:26.375Z,0
2018-03-14T02:42:35.647Z,0
2018-03-14T02:43:45.198Z,0
2018-03-14T02:44:54.175Z,0
2018-03-14T02:46:03.937Z,0
2018-03-14T02:47:13.169Z,0
2018-03-14T02:48:22.668Z,0
2018-03-14T02:49:31.359Z,0
2018-03-14T02:50:40.318Z,0
2018-03-14T02:51:49.825Z,0
2018-03-14T02:52:58.786Z,0
2018-03-14T02:54:08.019Z,0
2018-03-14T02:55:17.244Z,0
2018-03-14T02:56:26.470Z,0
2018-03-14T02:57:35.963Z,0
2018-03-14T02:58:44.923Z,0
2018-03-14T02:59:53.877Z,0
2018-03-14T03:01:02.836Z,0
2018-03-14T03:02:11.529Z,0
2018-03-14T03:03:20.755Z,0
2018-03-14T03:04:29.733Z,0
2018-03-14T03:05:38.424Z,0
2018-03-14T03:06:47.384Z,0
2018-03-14T03:07:56.350Z,0
2018-03-14T03:09:05.317Z,0
2018-03-14T03:10:14.271Z,0
2018-03-14T03:11:23.500Z,0
2018-03-14T03:12:33.258Z,0
2018-03-14T03:13:42.216Z,0
2018-03-14T03:14:51.988Z,0
2018-03-14T03:16:00.945Z,0
2018-03-14T03:17:10.442Z,0
2018-03-14T03:18:19.133Z,0
2018-03-14T03:19:27.820Z,0
2018-03-14T03:20:37.047Z,0
2018-03-14T03:21:46.813Z,0
2018-03-14T03:22:56.303Z,0
2018-03-14T03:24:05.526Z,0
2018-03-14T03:25:14.750Z,0
2018-03-14T03:26:23.711Z,0
2018-03-14T03:27:33.203Z,0
2018-03-14T03:28:42.978Z,0
2018-03-14T03:29:52.204Z,0
2018-03-14T03:31:01.981Z,0
2018-03-14T03:32:11.220Z,0
2018-03-14T03:33:20.439Z,0
2018-03-14T03:34:29.394Z,0
2018-03-14T03:35:38.616Z,0
2018-03-14T03:36:47.581Z,0
2018-03-14T03:37:56.807Z,0
2018-03-14T03:39:06.032Z,0
2018-03-14T03:40:15.526Z,0
2018-03-14T03:41:24.484Z,0
2018-03-14T03:42:33.707Z,0
2018-03-14T03:43:42.662Z,0
2018-03-14T03:44:52.151Z,0
2018-03-14T03:46:02.177Z,0
2018-03-14T03:47:11.410Z,0
2018-03-14T03:48:20.909Z,0
2018-03-14T03:49:30.138Z,0
2018-03-14T03:50:39.097Z,0
2018-03-14T03:51:47.791Z,0
2018-03-14T03:52:56.481Z,0
2018-03-14T03:54:06.243Z,0
2018-03-14T03:55:14.937Z,0
2018-03-14T03:56:24.431Z,0
2018-03-14T03:57:33.654Z,0
2018-03-14T03:58:42.614Z,0
2018-03-14T03:59:52.105Z,0
2018-03-14T04:01:01.057Z,0
2018-03-14T04:02:10.283Z,0
2018-03-14T04:03:19.246Z,0
2018-03-14T04:04:28.204Z,0
2018-03-14T04:05:37.159Z,0
2018-03-14T04:06:46.923Z,0
2018-03-14T04:07:55.886Z,0
2018-03-14T04:09:05.110Z,0
2018-03-14T04:10:14.878Z,0
2018-03-14T04:11:23.832Z,0
2018-03-14T04:12:33.863Z,0
2018-03-14T04:13:42.554Z,0
2018-03-14T04:14:51.245Z,0
2018-03-14T04:16:00.475Z,0
2018-03-14T04:17:09.429Z,0
2018-03-14T04:18:18.660Z,0
2018-03-14T04:19:27.617Z,0
2018-03-14T04:20:36.574Z,0
2018-03-14T04:21:46.069Z,0
2018-03-14T04:22:54.758Z,0
2018-03-14T04:24:03.983Z,0
2018-03-14T04:25:12.670Z,0
2018-03-14T04:26:21.628Z,0
2018-03-14T04:27:31.402Z,0
2018-03-14T04:28:40.627Z,0
2018-03-14T04:29:49.588Z,0
2018-03-14T04:30:58.279Z,0
2018-03-14T04:32:07.235Z,0
2018-03-14T04:33:16.459Z,0
2018-03-14T04:34:25.688Z,0
2018-03-14T04:35:34.914Z,0
2018-03-14T04:36:44.411Z,0
2018-03-14T04:37:53.914Z,0
2018-03-14T04:39:02.605Z,0
2018-03-14T04:40:11.568Z,0
2018-03-14T04:41:20.790Z,0
2018-03-14T04:42:30.019Z,0
2018-03-14T04:43:39.254Z,0
2018-03-14T04:44:47.947Z,0
2018-03-14T04:45:57.447Z,0
2018-03-14T04:47:06.672Z,0
2018-03-14T04:48:15.900Z,0
2018-03-14T04:49:25.135Z,0
2018-03-14T04:50:34.095Z,0
2018-03-14T04:51:43.327Z,0
2018-03-14T04:52:52.819Z,0
2018-03-14T04:54:02.051Z,0
2018-03-14T04:55:11.810Z,0
2018-03-14T04:56:21.073Z,0
2018-03-14T04:57:30.596Z,0
2018-03-14T04:58:39.557Z,0
2018-03-14T04:59:49.051Z,0
2018-03-14T05:00:58.011Z,0
2018-03-14T05:02:07.233Z,0
2018-03-14T05:03:16.736Z,0
2018-03-14T05:04:25.694Z,0
2018-03-14T05:05:34.655Z,0
2018-03-14T05:06:43.617Z,0
2018-03-14T05:07:52.840Z,0
2018-03-14T05:09:02.602Z,0
2018-03-14T05:10:12.105Z,0
2018-03-14T05:11:21.604Z,0
2018-03-14T05:12:30.553Z,0
2018-03-14T05:13:39.512Z,0
2018-03-14T05:14:49.042Z,0
2018-03-14T05:15:58.266Z,0
2018-03-14T05:17:07.759Z,0
2018-03-14T05:18:16.719Z,0
2018-03-14T05:19:25.712Z,0
2018-03-14T05:20:35.180Z,0
2018-03-14T05:21:44.667Z,0
2018-03-14T05:22:53.887Z,0
2018-03-14T05:24:03.381Z,0
2018-03-14T05:25:12.879Z,0
2018-03-14T05:26:22.377Z,0
2018-03-14T05:27:31.608Z,0
2018-03-14T05:28:41.388Z,0
2018-03-14T05:29:50.346Z,0
2018-03-14T05:30:59.577Z,0
2018-03-14T05:32:08.543Z,0
2018-03-14T05:33:17.503Z,0
2018-03-14T05:34:26.732Z,0
2018-03-14T05:35:35.699Z,0
2018-03-14T05:36:45.466Z,0
2018-03-14T05:37:54.422Z,0
2018-03-14T05:39:03.646Z,0
2018-03-14T05:40:12.610Z,0
2018-03-14T05:41:21.300Z,0
2018-03-14T05:42:30.791Z,0
2018-03-14T05:43:39.759Z,0
2018-03-14T05:44:48.985Z,0
2018-03-14T05:45:58.494Z,0
2018-03-14T05:47:07.712Z,0
2018-03-14T05:48:16.676Z,0
2018-03-14T05:49:25.642Z,0
2018-03-14T05:50:35.415Z,0
2018-03-14T05:51:44.377Z,0
2018-03-14T05:52:53.606Z,0
2018-03-14T05:54:02.832Z,0
2018-03-14T05:55:11.790Z,0
2018-03-14T05:56:20.475Z,0
2018-03-14T05:57:29.972Z,0
2018-03-14T05:58:38.932Z,0
2018-03-14T05:59:47.624Z,0
2018-03-14T06:00:56.848Z,0
2018-03-14T06:02:06.077Z,0
2018-03-14T06:03:15.313Z,0
2018-03-14T06:04:24.004Z,0
2018-03-14T06:05:32.696Z,0
2018-03-14T06:06:41.922Z,0
2018-03-14T06:07:50.880Z,0
2018-03-14T06:08:59.839Z,0
2018-03-14T06:10:09.076Z,0
2018-03-14T06:11:18.037Z,0
2018-03-14T06:12:26.996Z,0
2018-03-14T06:13:36.219Z,0
2018-03-14T06:14:45.441Z,0
2018-03-14T06:15:54.668Z,0
2018-03-14T06:17:03.632Z,0
2018-03-14T06:18:12.591Z,0
2018-03-14T06:19:21.549Z,0
2018-03-14T06:20:30.511Z,0
2018-03-14T06:21:39.203Z,0
2018-03-14T06:22:48.695Z,0
2018-03-14T06:23:57.707Z,0
2018-03-14T06:25:07.203Z,0
2018-03-14T06:26:16.709Z,0
2018-03-14T06:27:25.669Z,0
2018-03-14T06:28:34.900Z,0
2018-03-14T06:29:44.140Z,0
2018-03-14T06:30:53.668Z,0
2018-03-14T06:32:02.889Z,0
2018-03-14T06:33:11.843Z,0
2018-03-14T06:34:21.066Z,0
2018-03-14T06:35:30.292Z,0
2018-03-14T06:36:39.788Z,0
2018-03-14T06:37:49.009Z,0
2018-03-14T06:38:58.230Z,0
2018-03-14T06:40:07.193Z,0
2018-03-14T06:41:16.422Z,0
2018-03-14T06:42:25.653Z,0
2018-03-14T06:43:35.147Z,0
2018-03-14T06:44:44.639Z,0
2018-03-14T06:45:53.870Z,0
2018-03-14T06:47:03.362Z,0
2018-03-14T06:48:12.589Z,0
2018-03-14T06:49:22.084Z,0
2018-03-14T06:50:31.038Z,0
2018-03-14T06:51:39.994Z,0
2018-03-14T06:52:49.218Z,0
2018-03-14T06:53:58.178Z,0
2018-03-14T06:55:07.675Z,0
2018-03-14T06:56:16.902Z,0
2018-03-14T06:57:26.127Z,0
2018-03-14T06:58:35.626Z,0
2018-03-14T06:59:44.852Z,0
2018-03-14T07:00:53.809Z,0
2018-03-14T07:02:03.344Z,0
2018-03-14T07:03:12.571Z,0
2018-03-14T07:04:21.806Z,0
2018-03-14T07:05:31.034Z,0
2018-03-14T07:06:40.531Z,0
2018-03-14T07:07:49.215Z,0
2018-03-14T07:08:58.705Z,4
2018-03-14T07:10:07.930Z,4
2018-03-14T07:11:16.892Z,4
2018-03-14T07:12:26.474Z,4
2018-03-14T07:13:35.975Z,4
2018-03-14T07:14:44.934Z,4
2018-03-14T07:15:53.621Z,4
2018-03-14T07:17:02.307Z,4
2018-03-14T07:18:11.534Z,4
2018-03-14T07:19:20.490Z,4
2018-03-14T07:20:29.450Z,4
2018-03-14T07:21:38.948Z,0
2018-03-14T07:22:47.905Z,0
2018-03-14T07:23:56.865Z,0
2018-03-14T07:25:06.092Z,0
2018-03-14T07:26:15.355Z,0
2018-03-14T07:27:24.317Z,0
2018-03-14T07:28:34.207Z,0
2018-03-14T07:29:43.419Z,0
2018-03-14T07:30:52.110Z,0
2018-03-14T07:32:01.065Z,0
2018-03-14T07:33:09.753Z,0
2018-03-14T07:34:18.728Z,0
2018-03-14T07:35:28.228Z,0
2018-03-14T07:36:37.459Z,0
2018-03-14T07:37:46.421Z,0
2018-03-14T07:38:55.377Z,0
2018-03-14T07:40:04.336Z,0
2018-03-14T07:41:13.825Z,0
2018-03-14T07:42:23.054Z,0
2018-03-14T07:43:32.283Z,0
2018-03-14T07:44:42.415Z,0
2018-03-14T07:45:51.385Z,0
2018-03-14T07:47:00.621Z,0
2018-03-14T07:48:09.575Z,0
2018-03-14T07:49:18.801Z,0
2018-03-14T07:50:27.489Z,0
2018-03-14T07:51:36.989Z,4
2018-03-14T07:52:45.678Z,4
2018-03-14T07:53:54.639Z,4
2018-03-14T07:55:03.861Z,4
2018-03-14T07:56:12.823Z,4
2018-03-14T07:57:22.059Z,4
2018-03-14T07:58:31.555Z,4
2018-03-14T07:59:41.053Z,4
2018-03-14T08:00:50.274Z,4
2018-03-14T08:01:58.966Z,4
2018-03-14T08:03:07.928Z,4
2018-03-14T08:04:17.419Z,4
2018-03-14T08:05:26.645Z,0
2018-03-14T08:06:36.150Z,0
2018-03-14T08:07:45.817Z,0
2018-03-14T08:08:54.439Z,0
2018-03-14T08:10:03.129Z,0
2018-03-14T08:11:12.356Z,0
2018-03-14T08:12:21.859Z,0
2018-03-14T08:13:31.836Z,0
2018-03-14T08:14:41.542Z,0
2018-03-14T08:15:50.769Z,0
2018-03-14T08:16:59.730Z,0
2018-03-14T08:18:08.958Z,0
2018-03-14T08:19:18.182Z,0
2018-03-14T08:20:27.141Z,0
2018-03-14T08:21:35.832Z,0
2018-03-14T08:22:45.591Z,0
2018-03-14T08:23:54.818Z,0
2018-03-14T08:25:04.309Z,0
2018-03-14T08:26:14.122Z,0
2018-03-14T08:27:23.344Z,4
2018-03-14T08:28:32.839Z,4
2018-03-14T08:29:41.798Z,4
2018-03-14T08:30:50.764Z,4
2018-03-14T08:32:00.003Z,4
2018-03-14T08:33:08.961Z,4
2018-03-14T08:34:18.724Z,4
2018-03-14T08:35:28.272Z,4
2018-03-14T08:36:37.499Z,4
2018-03-14T08:37:46.187Z,4
2018-03-14T08:38:55.143Z,4
2018-03-14T08:40:04.102Z,4
2018-03-14T08:41:13.326Z,4
2018-03-14T08:42:22.284Z,4
2018-03-14T08:43:31.512Z,4
2018-03-14T08:44:40.479Z,4
2018-03-14T08:45:49.167Z,4
2018-03-14T08:46:58.220Z,4
2018-03-14T08:48:07.712Z,4
2018-03-14T08:49:17.217Z,4
2018-03-14T08:50:26.810Z,4
2018-03-14T08:51:36.046Z,0
2018-03-14T08:52:45.006Z,0
2018-03-14T08:53:53.965Z,0
2018-03-14T08:55:02.923Z,0
2018-03-14T08:56:12.146Z,4
2018-03-14T08:57:21.103Z,4
2018-03-14T08:58:30.059Z,4
2018-03-14T08:59:39.336Z,4
2018-03-14T09:00:48.027Z,4
2018-03-14T09:01:56.989Z,0
2018-03-14T09:03:05.677Z,0
2018-03-14T09:04:14.631Z,0
2018-03-14T09:05:23.862Z,4
2018-03-14T09:06:32.819Z,0
2018-03-14T09:07:42.047Z,0
2018-03-14T09:08:51.553Z,0
2018-03-14T09:10:00.784Z,0
2018-03-14T09:11:09.824Z,0
2018-03-14T09:12:19.340Z,0
2018-03-14T09:13:28.031Z,0
2018-03-14T09:14:37.256Z,4
2018-03-14T09:15:46.479Z,4
2018-03-14T09:16:55.705Z,4
2018-03-14T09:18:04.397Z,4
2018-03-14T09:19:13.358Z,4
2018-03-14T09:20:22.586Z,4
2018-03-14T09:21:32.346Z,4
2018-03-14T09:22:41.838Z,4
2018-03-14T09:23:51.331Z,4
2018-03-14T09:25:00.827Z,4
2018-03-14T09:26:09.781Z,4
2018-03-14T09:27:19.003Z,4
2018-03-14T09:28:29.030Z,4
2018-03-14T09:29:37.989Z,4
2018-03-14T09:30:48.025Z,4
2018-03-14T09:31:56.986Z,4
2018-03-14T09:33:06.221Z,4
2018-03-14T09:34:15.445Z,4
2018-03-14T09:35:24.403Z,4
2018-03-14T09:36:33.366Z,4
2018-03-14T09:37:42.602Z,4
2018-03-14T09:38:52.093Z,4
2018-03-14T09:40:01.318Z,4
2018-03-14T09:41:10.277Z,0
2018-03-14T09:42:19.232Z,0
2018-03-14T09:43:28.194Z,4
2018-03-14T09:44:37.421Z,4
2018-03-14T09:45:46.385Z,4
2018-03-14T09:46:55.881Z,4
2018-03-14T09:48:05.109Z,4
2018-03-14T09:49:14.066Z,4
2018-03-14T09:50:23.296Z,4
2018-03-14T09:51:32.527Z,4
2018-03-14T09:52:41.750Z,4
2018-03-14T09:53:50.973Z,4
2018-03-14T09:54:59.932Z,4
2018-03-14T09:56:09.432Z,4
2018-03-14T09:57:18.690Z,4
2018-03-14T09:58:27.925Z,4
2018-03-14T09:59:37.963Z,4
2018-03-14T10:00:47.246Z,4
2018-03-14T10:01:55.917Z,4
2018-03-14T10:03:05.155Z,4
2018-03-14T10:04:14.387Z,4
2018-03-14T10:05:23.346Z,4
2018-03-14T10:06:32.841Z,4
2018-03-14T10:07:42.600Z,4
2018-03-14T10:08:52.099Z,4
2018-03-14T10:10:01.332Z,4
2018-03-14T10:11:10.828Z,4
2018-03-14T10:12:20.331Z,4
2018-03-14T10:13:29.819Z,8
2018-03-14T10:14:39.314Z,4
2018-03-14T10:15:49.076Z,4
2018-03-14T10:16:58.842Z,4
2018-03-14T10:18:07.872Z,8
2018-03-14T10:19:17.495Z,4
2018-03-14T10:20:26.722Z,4
2018-03-14T10:21:35.947Z,4
2018-03-14T10:22:45.441Z,4
2018-03-14T10:23:54.404Z,8
2018-03-14T10:25:03.636Z,4
2018-03-14T10:26:12.860Z,4
2018-03-14T10:27:22.086Z,4
2018-03-14T10:28:31.315Z,4
2018-03-14T10:29:40.542Z,8
2018-03-14T10:30:49.501Z,8
2018-03-14T10:31:58.468Z,8
2018-03-14T10:33:07.160Z,8
2018-03-14T10:34:16.392Z,8
2018-03-14T10:35:25.887Z,4
2018-03-14T10:36:35.384Z,8
2018-03-14T10:37:44.879Z,8
2018-03-14T10:38:54.100Z,8
2018-03-14T10:40:03.328Z,8
2018-03-14T10:41:12.552Z,8
2018-03-14T10:42:22.053Z,4
2018-03-14T10:43:31.277Z,4
2018-03-14T10:44:40.236Z,4
2018-03-14T10:45:49.468Z,8
2018-03-14T10:46:58.965Z,8
2018-03-14T10:48:08.465Z,8
2018-03-14T10:49:17.725Z,8
2018-03-14T10:50:26.688Z,8
2018-03-14T10:51:35.651Z,4
2018-03-14T10:52:44.879Z,4
2018-03-14T10:53:54.107Z,4
2018-03-14T10:55:03.064Z,4
2018-03-14T10:56:12.022Z,8
2018-03-14T10:57:21.514Z,8
2018-03-14T10:58:30.741Z,8
2018-03-14T10:59:40.239Z,8
2018-03-14T11:00:49.463Z,8
2018-03-14T11:01:58.689Z,4
2018-03-14T11:03:07.644Z,4
2018-03-14T11:04:16.874Z,4
2018-03-14T11:05:26.102Z,4
2018-03-14T11:06:35.330Z,4
2018-03-14T11:07:44.839Z,4
2018-03-14T11:08:53.790Z,4
2018-03-14T11:10:03.285Z,4
2018-03-14T11:11:12.248Z,4
2018-03-14T11:12:21.742Z,4
2018-03-14T11:13:30.699Z,4
2018-03-14T11:14:40.197Z,4
2018-03-14T11:15:49.166Z,4
2018-03-14T11:16:58.665Z,8
2018-03-14T11:18:08.511Z,8
2018-03-14T11:19:18.010Z,8
2018-03-14T11:20:27.676Z,8
2018-03-14T11:21:37.332Z,4
2018-03-14T11:22:46.567Z,4
2018-03-14T11:23:55.797Z,4
2018-03-14T11:25:04.763Z,4
2018-03-14T11:26:13.990Z,4
2018-03-14T11:27:23.488Z,8
2018-03-14T11:28:32.720Z,8
2018-03-14T11:29:41.677Z,4
2018-03-14T11:30:50.632Z,4
2018-03-14T11:31:59.863Z,4
2018-03-14T11:33:08.820Z,8
2018-03-14T11:34:18.317Z,4
2018-03-14T11:35:27.276Z,4
2018-03-14T11:36:36.766Z,4
2018-03-14T11:37:45.720Z,8
2018-03-14T11:38:54.690Z,8
2018-03-14T11:40:04.188Z,4
2018-03-14T11:41:12.876Z,8
2018-03-14T11:42:22.404Z,8
2018-03-14T11:43:31.954Z,12
2018-03-14T11:44:41.202Z,8
2018-03-14T11:45:50.469Z,8
2018-03-14T11:46:59.426Z,8
2018-03-14T11:48:08.112Z,8
2018-03-14T11:49:16.801Z,8
2018-03-14T11:50:26.033Z,8
2018-03-14T11:51:34.988Z,4
2018-03-14T11:52:44.216Z,8
2018-03-14T11:53:53.453Z,8
2018-03-14T11:55:02.947Z,8
2018-03-14T11:56:11.922Z,8
2018-03-14T11:57:20.990Z,12
2018-03-14T11:58:30.222Z,24
2018-03-14T11:59:39.710Z,36
2018-03-14T12:00:49.216Z,52
2018-03-14T12:01:58.176Z,52
2018-03-14T12:03:06.867Z,48
2018-03-14T12:04:16.090Z,48
2018-03-14T12:05:25.578Z,8
2018-03-14T12:06:34.540Z,4
2018-03-14T12:07:43.819Z,8
2018-03-14T12:08:53.048Z,8
2018-03-14T12:10:02.809Z,8
2018-03-14T12:11:11.907Z,4
2018-03-14T12:12:21.534Z,4
2018-03-14T12:13:30.822Z,4
2018-03-14T12:14:39.513Z,8
2018-03-14T12:15:48.204Z,4
2018-03-14T12:16:57.700Z,8
2018-03-14T12:18:06.665Z,8
2018-03-14T12:19:15.892Z,12
2018-03-14T12:20:25.121Z,8
2018-03-14T12:21:34.353Z,8
2018-03-14T12:22:43.309Z,8
2018-03-14T12:23:52.544Z,8
2018-03-14T12:25:01.775Z,8
2018-03-14T12:26:10.735Z,8
2018-03-14T12:27:19.424Z,8
2018-03-14T12:28:28.385Z,8
2018-03-14T12:29:37.607Z,12
2018-03-14T12:30:47.127Z,36
2018-03-14T12:31:56.335Z,24
2018-03-14T12:33:05.569Z,52
2018-03-14T12:34:14.258Z,8
2018-03-14T12:35:23.215Z,16
2018-03-14T12:36:31.901Z,12
2018-03-14T12:37:41.398Z,8
2018-03-14T12:38:50.622Z,8
2018-03-14T12:39:59.873Z,8
2018-03-14T12:41:09.395Z,4
2018-03-14T12:42:18.777Z,8
2018-03-14T12:43:28.005Z,8
2018-03-14T12:44:36.966Z,8
2018-03-14T12:45:46.189Z,8
2018-03-14T12:46:55.152Z,8
2018-03-14T12:48:04.380Z,8
2018-03-14T12:49:13.885Z,4
2018-03-14T12:50:23.381Z,8
2018-03-14T12:51:32.610Z,8
2018-03-14T12:52:41.650Z,8
2018-03-14T12:53:51.280Z,8
2018-03-14T12:55:01.687Z,8
2018-03-14T12:56:12.057Z,8
2018-03-14T12:57:21.410Z,12
2018-03-14T12:58:31.841Z,8
2018-03-14T12:59:41.814Z,8
2018-03-14T13:00:51.864Z,12
2018-03-14T13:02:02.322Z,12
2018-03-14T13:03:11.560Z,8
2018-03-14T13:04:21.572Z,8
2018-03-14T13:05:31.799Z,24
2018-03-14T13:06:41.349Z,44
2018-03-14T13:07:50.824Z,32
2018-03-14T13:09:00.185Z,32
2018-03-14T13:10:09.496Z,40
2018-03-14T13:11:18.855Z,28
2018-03-14T13:12:27.886Z,40
2018-03-14T13:13:37.837Z,40
2018-03-14T13:14:46.861Z,20
2018-03-14T13:15:55.900Z,16
2018-03-14T13:17:05.187Z,12
2018-03-14T13:18:15.095Z,12
2018-03-14T13:19:24.557Z,16
2018-03-14T13:20:34.392Z,12
2018-03-14T13:21:43.957Z,8
2018-03-14T13:22:53.323Z,20
2018-03-14T13:24:03.499Z,8
2018-03-14T13:25:14.469Z,24
2018-03-14T13:26:23.560Z,8
2018-03-14T13:27:32.691Z,8
2018-03-14T13:28:42.696Z,8
2018-03-14T13:29:53.561Z,8
2018-03-14T13:31:03.686Z,8
2018-03-14T13:32:14.411Z,8
2018-03-14T13:33:24.180Z,8
2018-03-14T13:34:33.203Z,8
2018-03-14T13:35:42.527Z,8
